Time;durP1;ratioP1;P1;durP2;ratioP2;P2;SDS_P1;SDS_P2;PMS_P1;PMS_P2;Temp;Humidity;BMP_temperature;BMP_pressure;BME280_temperature;BME280_humidity;BME280_pressure;Samples;Min_cycle;Max_cycle;Signal;HPM_P1;HPM_P2
2022/08/14 00:00:51;;;;;;;18.15;10.00;;;23.40;99.90;;;;;;5062476;28;20322;-75
2022/08/14 00:03:26;;;;;;;13.68;9.60;;;23.30;99.90;;;;;;5064572;28;20675;-75
2022/08/14 00:05:56;;;;;;;18.25;9.32;;;23.30;99.90;;;;;;5064506;28;20202;-75
2022/08/14 00:08:23;;;;;;;16.48;9.70;;;23.30;99.90;;;;;;5064717;28;20192;-75
2022/08/14 00:10:50;;;;;;;18.63;10.02;;;23.30;99.90;;;;;;5048378;28;20187;-76
2022/08/14 00:13:22;;;;;;;16.08;9.95;;;23.20;99.90;;;;;;5046499;28;20282;-75
2022/08/14 00:15:51;;;;;;;19.10;10.50;;;23.20;99.90;;;;;;5059058;28;20275;-75
2022/08/14 00:18:26;;;;;;;19.15;10.25;;;23.20;99.90;;;;;;5062450;28;20241;-75
2022/08/14 00:20:54;;;;;;;13.50;9.65;;;23.30;99.90;;;;;;5064509;28;20596;-75
2022/08/14 00:23:21;;;;;;;15.90;9.77;;;23.30;99.90;;;;;;5047390;28;20190;-75
2022/08/14 00:25:52;;;;;;;13.65;9.75;;;23.30;99.90;;;;;;5059651;28;20281;-75
2022/08/14 00:28:25;;;;;;;14.50;10.10;;;23.30;99.90;;;;;;5080351;28;20198;-75
2022/08/14 00:30:56;;;;;;;15.05;9.95;;;23.30;99.90;;;;;;5088407;28;20195;-75
2022/08/14 00:33:28;;;;;;;20.50;10.23;;;23.30;99.90;;;;;;5064240;28;20190;-75
2022/08/14 00:35:55;;;;;;;18.55;9.57;;;23.30;99.90;;;;;;5064132;28;20306;-75
2022/08/14 00:38:21;;;;;;;14.73;9.27;;;23.30;99.90;;;;;;5082127;28;20195;-75
2022/08/14 00:40:49;;;;;;;14.05;9.70;;;23.20;99.90;;;;;;5064308;28;20211;-75
2022/08/14 00:43:16;;;;;;;19.52;9.77;;;23.20;99.90;;;;;;5074263;28;20179;-75
2022/08/14 00:45:43;;;;;;;13.32;9.38;;;23.20;99.90;;;;;;5058030;28;20416;-75
2022/08/14 00:48:10;;;;;;;12.05;9.63;;;23.20;99.90;;;;;;5079610;28;20191;-75
2022/08/14 00:50:37;;;;;;;10.82;8.95;;;23.20;99.90;;;;;;5067790;28;20191;-75
2022/08/14 00:53:07;;;;;;;11.82;9.10;;;23.20;99.90;;;;;;5064677;28;20195;-75
2022/08/14 00:55:36;;;;;;;15.15;9.18;;;23.20;99.90;;;;;;5061361;28;20266;-75
2022/08/14 01:00:49;;;;;;;13.63;9.10;;;23.20;99.90;;;;;;5065975;28;20194;-75
2022/08/14 01:03:19;;;;;;;15.32;9.63;;;23.20;99.90;;;;;;5063164;28;20190;-75
2022/08/14 01:05:49;;;;;;;14.38;9.20;;;23.20;99.90;;;;;;5067313;28;20253;-75
2022/08/14 01:08:36;;;;;;;14.77;9.80;;;23.30;99.90;;;;;;5065393;28;20194;-75
2022/08/14 01:11:06;;;;;;;12.55;9.20;;;23.30;99.90;;;;;;5080629;28;20959;-75
2022/08/14 01:13:38;;;;;;;15.13;9.38;;;23.30;99.90;;;;;;5058956;28;20194;-75
2022/08/14 01:16:14;;;;;;;15.35;9.52;;;23.20;99.90;;;;;;5059194;28;20602;-75
2022/08/14 01:21:38;;;;;;;14.23;9.17;;;23.20;99.90;;;;;;5066183;28;20182;-75
2022/08/14 01:24:06;;;;;;;11.57;9.25;;;23.20;99.90;;;;;;5062899;28;20240;-75
2022/08/14 01:26:34;;;;;;;14.88;9.45;;;23.20;99.90;;;;;;5066274;28;20222;-75
2022/08/14 01:29:04;;;;;;;17.17;9.77;;;23.20;99.90;;;;;;5067158;28;20648;-75
2022/08/14 01:31:37;;;;;;;19.20;8.90;;;23.20;99.90;;;;;;5067171;28;20183;-75
2022/08/14 01:34:06;;;;;;;14.65;9.48;;;23.20;99.90;;;;;;5064530;28;20191;-75
2022/08/14 01:36:37;;;;;;;16.95;9.88;;;23.20;99.90;;;;;;5066492;28;20206;-75
2022/08/14 01:39:26;;;;;;;14.50;8.65;;;23.30;99.90;;;;;;5048179;28;20844;-75
2022/08/14 01:41:57;;;;;;;15.65;8.70;;;23.20;99.90;;;;;;5060062;28;20199;-75
2022/08/14 01:44:25;;;;;;;13.40;8.95;;;23.30;99.90;;;;;;5063848;28;20195;-75
2022/08/14 01:46:57;;;;;;;14.40;9.13;;;23.20;99.90;;;;;;5081274;28;20237;-75
2022/08/14 01:49:25;;;;;;;12.13;8.85;;;23.30;99.90;;;;;;5080364;28;20553;-75
2022/08/14 01:51:55;;;;;;;15.38;9.27;;;23.20;99.90;;;;;;5065029;28;20565;-75
2022/08/14 01:54:24;;;;;;;12.13;8.50;;;23.20;99.90;;;;;;5058988;28;20192;-75
2022/08/14 01:56:55;;;;;;;11.32;8.23;;;23.20;99.90;;;;;;5081755;28;20214;-75
2022/08/14 01:59:32;;;;;;;17.58;9.48;;;23.30;99.90;;;;;;5066552;28;20260;-75
2022/08/14 02:02:02;;;;;;;14.93;9.23;;;23.30;99.90;;;;;;5084849;28;20198;-75
2022/08/14 02:04:34;;;;;;;12.23;9.23;;;23.30;99.90;;;;;;5067583;28;20201;-75
2022/08/14 02:07:03;;;;;;;11.88;8.80;;;23.30;99.90;;;;;;5072699;28;20229;-75
2022/08/14 02:09:36;;;;;;;14.25;8.70;;;23.30;99.90;;;;;;5073908;28;20183;-75
2022/08/14 02:12:07;;;;;;;16.10;8.80;;;23.30;99.90;;;;;;5067967;28;20517;-75
2022/08/14 02:14:35;;;;;;;16.33;8.90;;;23.30;99.90;;;;;;5069240;28;20194;-75
2022/08/14 02:17:05;;;;;;;15.30;8.55;;;23.30;99.90;;;;;;5068032;28;20214;-75
2022/08/14 02:19:34;;;;;;;17.05;9.18;;;23.30;99.90;;;;;;5081924;28;20220;-75
2022/08/14 02:22:02;;;;;;;16.20;9.15;;;23.20;99.90;;;;;;5071581;28;20218;-75
2022/08/14 02:24:30;;;;;;;17.48;8.85;;;23.20;99.90;;;;;;5071420;28;20206;-75
2022/08/14 02:26:59;;;;;;;12.82;8.60;;;23.20;99.90;;;;;;5067753;28;20275;-75
2022/08/14 02:29:28;;;;;;;13.32;8.85;;;23.20;99.90;;;;;;5081305;28;20222;-75
2022/08/14 02:31:59;;;;;;;14.52;8.23;;;23.10;99.90;;;;;;5049709;28;20328;-75
2022/08/14 02:34:35;;;;;;;13.70;8.88;;;23.20;99.90;;;;;;5048815;28;20191;-75
2022/08/14 02:37:10;;;;;;;16.38;9.88;;;23.20;99.90;;;;;;5067692;28;20214;-75
2022/08/14 02:39:45;;;;;;;13.48;9.15;;;23.20;99.90;;;;;;5066083;28;20358;-76
2022/08/14 02:42:16;;;;;;;11.45;8.90;;;23.10;99.90;;;;;;5049245;28;20191;-75
2022/08/14 02:44:44;;;;;;;14.75;9.30;;;23.10;99.90;;;;;;5064264;28;20736;-75
2022/08/14 02:47:10;;;;;;;14.20;9.70;;;23.10;99.90;;;;;;5080239;28;20195;-75
2022/08/14 02:49:37;;;;;;;14.95;9.38;;;23.10;99.90;;;;;;5067937;28;20194;-75
2022/08/14 02:52:06;;;;;;;16.23;8.98;;;23.10;99.90;;;;;;5057730;28;20214;-75
2022/08/14 02:54:34;;;;;;;18.27;9.10;;;23.00;99.90;;;;;;5043771;28;20194;-75
2022/08/14 02:57:05;;;;;;;11.70;8.90;;;23.10;99.90;;;;;;5054043;28;20214;-75
2022/08/14 02:59:38;;;;;;;17.52;9.65;;;23.10;99.90;;;;;;5083249;28;20187;-75
2022/08/14 03:02:04;;;;;;;17.58;9.38;;;23.10;99.90;;;;;;5066681;28;20592;-75
2022/08/14 03:04:31;;;;;;;18.25;9.77;;;23.10;99.90;;;;;;5065658;28;20221;-75
2022/08/14 03:06:58;;;;;;;16.55;10.05;;;23.10;99.90;;;;;;5067450;28;20908;-75
2022/08/14 03:09:26;;;;;;;18.17;10.00;;;23.10;99.90;;;;;;5068087;28;20195;-76
2022/08/14 03:11:52;;;;;;;23.48;10.18;;;23.10;99.90;;;;;;5067515;28;20722;-76
2022/08/14 03:14:20;;;;;;;15.80;10.53;;;23.10;99.90;;;;;;5058848;28;20211;-75
2022/08/14 03:16:47;;;;;;;18.67;11.13;;;23.10;99.90;;;;;;5072594;28;20203;-75
2022/08/14 03:19:13;;;;;;;17.02;10.32;;;23.00;99.90;;;;;;5068221;28;20211;-75
2022/08/14 03:21:40;;;;;;;16.90;10.30;;;23.10;99.90;;;;;;5061566;28;20170;-75
2022/08/14 03:26:33;;;;;;;19.40;10.35;;;23.00;99.90;;;;;;5068964;28;20208;-76
2022/08/14 03:29:01;;;;;;;23.40;10.05;;;23.00;99.90;;;;;;5069375;28;20509;-75
2022/08/14 03:31:28;;;;;;;18.63;10.75;;;23.00;99.90;;;;;;5069875;28;20186;-76
2022/08/14 03:33:55;;;;;;;15.80;10.43;;;23.00;99.90;;;;;;5066042;28;20190;-76
2022/08/14 03:36:22;;;;;;;18.00;11.15;;;23.00;99.90;;;;;;5068612;28;20213;-75
2022/08/14 03:38:52;;;;;;;20.75;11.10;;;23.00;99.90;;;;;;5052422;28;20944;-75
2022/08/14 03:41:25;;;;;;;21.52;10.95;;;23.00;99.90;;;;;;5068471;28;20922;-76
2022/08/14 03:43:57;;;;;;;19.60;10.77;;;23.00;99.90;;;;;;5069771;28;20252;-75
2022/08/14 03:46:27;;;;;;;21.05;11.50;;;23.10;99.90;;;;;;5071110;28;20181;-75
2022/08/14 03:48:54;;;;;;;22.48;11.93;;;23.10;99.90;;;;;;5071101;28;20214;-75
2022/08/14 03:51:27;;;;;;;21.75;11.25;;;23.10;99.90;;;;;;5068043;28;20244;-75
2022/08/14 03:53:56;;;;;;;25.75;11.60;;;23.10;99.90;;;;;;5052278;28;20175;-75
2022/08/14 03:56:25;;;;;;;20.85;11.30;;;23.10;99.90;;;;;;5049559;28;20211;-76
2022/08/14 03:58:57;;;;;;;24.65;11.05;;;23.10;99.90;;;;;;5060967;28;20529;-75
2022/08/14 04:01:25;;;;;;;20.42;10.95;;;23.10;99.90;;;;;;5066576;28;20190;-76
2022/08/14 04:04:01;;;;;;;20.00;11.75;;;23.10;99.90;;;;;;5069907;28;20694;-75
2022/08/14 04:06:27;;;;;;;24.87;11.43;;;23.10;99.90;;;;;;5069770;28;20224;-75
2022/08/14 04:08:54;;;;;;;20.67;11.68;;;23.20;99.90;;;;;;5052736;28;20187;-75
2022/08/14 04:11:20;;;;;;;19.83;10.90;;;23.20;99.90;;;;;;5069326;28;20228;-75
2022/08/14 04:13:48;;;;;;;19.43;11.50;;;23.20;99.90;;;;;;5068079;28;20597;-75
2022/08/14 04:16:19;;;;;;;20.65;11.43;;;23.20;99.90;;;;;;5061046;28;20612;-75
2022/08/14 04:18:53;;;;;;;20.90;11.57;;;23.20;99.90;;;;;;5068237;28;20522;-75
2022/08/14 04:21:24;;;;;;;20.50;10.50;;;23.20;99.90;;;;;;5070870;28;20210;-75
2022/08/14 04:23:54;;;;;;;20.70;10.90;;;23.30;99.90;;;;;;5074971;28;20182;-75
2022/08/14 04:26:26;;;;;;;23.92;11.30;;;23.30;99.90;;;;;;5052295;28;20195;-75
2022/08/14 04:28:53;;;;;;;24.60;11.18;;;23.30;99.90;;;;;;5067086;28;20201;-75
2022/08/14 04:31:22;;;;;;;24.05;11.23;;;23.30;99.90;;;;;;5068211;28;20191;-75
2022/08/14 04:33:51;;;;;;;19.00;10.75;;;23.30;99.90;;;;;;5069309;28;20198;-75
2022/08/14 04:36:19;;;;;;;19.77;10.45;;;23.30;99.90;;;;;;5070447;28;20202;-75
2022/08/14 04:44:15;;;;;;;18.25;9.98;;;23.60;99.90;;;;;;5067069;28;20189;-75
2022/08/14 04:48:11;;;;;;;14.32;9.23;;;23.70;99.90;;;;;;5063843;28;20187;-76
2022/08/14 04:49:29;;;;;;;21.60;10.60;;;23.70;99.90;;;;;;5067153;28;20524;-75
2022/08/14 04:51:56;;;;;;;17.02;9.10;;;23.80;99.90;;;;;;5066383;28;20486;-76
2022/08/14 04:54:26;;;;;;;17.48;8.93;;;23.90;99.90;;;;;;5082818;28;20183;-75
2022/08/14 04:56:55;;;;;;;18.30;10.02;;;24.00;99.90;;;;;;5068876;28;20268;-75
2022/08/14 04:59:23;;;;;;;12.52;8.82;;;24.00;99.90;;;;;;5050406;28;20187;-75
2022/08/14 05:01:52;;;;;;;18.10;10.13;;;24.10;99.90;;;;;;5067029;28;20642;-75
2022/08/14 05:04:23;;;;;;;16.58;9.40;;;24.10;99.90;;;;;;5068154;28;20198;-75
2022/08/14 05:06:54;;;;;;;20.23;9.65;;;24.10;99.90;;;;;;5050968;28;20186;-75
2022/08/14 05:09:22;;;;;;;18.83;9.63;;;24.20;99.90;;;;;;5068584;28;20532;-75
2022/08/14 05:11:49;;;;;;;19.70;10.10;;;24.30;99.90;;;;;;5077909;28;20183;-75
2022/08/14 05:14:17;;;;;;;22.08;10.45;;;24.30;99.90;;;;;;5048011;28;20179;-75
2022/08/14 05:16:45;;;;;;;20.50;10.90;;;24.30;99.90;;;;;;5051830;28;20283;-75
2022/08/14 05:19:13;;;;;;;19.20;10.38;;;24.30;99.90;;;;;;5068371;28;20194;-76
2022/08/14 05:21:40;;;;;;;16.00;10.13;;;24.40;99.90;;;;;;5066542;28;20187;-76
2022/08/14 05:24:11;;;;;;;18.38;10.40;;;24.50;99.90;;;;;;5074057;28;20178;-76
2022/08/14 05:26:40;;;;;;;19.92;10.00;;;24.50;99.90;;;;;;5085144;28;20571;-75
2022/08/14 05:29:08;;;;;;;15.55;9.05;;;24.50;99.90;;;;;;5049985;28;20272;-75
2022/08/14 05:31:38;;;;;;;20.02;10.70;;;24.50;99.90;;;;;;5064886;28;20552;-76
2022/08/14 05:34:08;;;;;;;19.52;10.18;;;24.70;99.90;;;;;;5067382;28;20197;-76
2022/08/14 05:36:35;;;;;;;19.23;10.25;;;24.70;99.90;;;;;;5072272;28;20540;-76
2022/08/14 05:39:03;;;;;;;24.65;10.15;;;24.90;99.90;;;;;;5087078;28;20210;-75
2022/08/14 05:41:31;;;;;;;20.08;9.70;;;24.90;99.90;;;;;;5087670;28;20194;-76
2022/08/14 05:43:58;;;;;;;21.02;8.88;;;25.00;99.90;;;;;;5063720;28;20187;-76
2022/08/14 05:46:24;;;;;;;15.32;8.95;;;25.00;99.90;;;;;;5070417;28;20195;-76
2022/08/14 05:48:55;;;;;;;17.60;9.60;;;25.00;99.90;;;;;;5071277;28;20656;-76
2022/08/14 05:51:23;;;;;;;17.00;9.52;;;25.00;99.90;;;;;;5088145;28;20275;-76
2022/08/14 05:53:50;;;;;;;19.00;10.23;;;25.00;99.90;;;;;;5072249;28;20249;-76
2022/08/14 05:56:16;;;;;;;21.13;10.13;;;25.10;99.90;;;;;;5062601;28;20215;-76
2022/08/14 05:58:44;;;;;;;18.58;10.35;;;25.10;99.90;;;;;;5087982;28;20183;-76
2022/08/14 06:01:10;;;;;;;15.93;9.48;;;25.20;99.90;;;;;;5070285;28;20274;-74
2022/08/14 06:03:37;;;;;;;22.63;10.73;;;25.20;99.90;;;;;;5087270;28;20187;-75
2022/08/14 06:06:08;;;;;;;24.77;10.68;;;25.20;99.90;;;;;;5071118;28;20881;-76
2022/08/14 06:08:35;;;;;;;22.45;10.77;;;25.20;99.90;;;;;;5072041;28;20640;-75
2022/08/14 06:11:06;;;;;;;21.75;11.23;;;25.30;99.90;;;;;;5072242;28;20194;-76
2022/08/14 06:13:37;;;;;;;18.33;10.73;;;25.50;99.90;;;;;;5070247;28;21635;-76
2022/08/14 06:16:08;;;;;;;19.25;10.70;;;25.60;99.90;;;;;;5059555;28;20211;-77
2022/08/14 06:18:34;;;;;;;21.23;11.18;;;25.60;99.90;;;;;;5071501;28;20182;-76
2022/08/14 06:21:03;;;;;;;20.08;10.32;;;25.70;99.90;;;;;;5067914;28;20183;-76
2022/08/14 06:23:33;;;;;;;21.58;11.05;;;25.80;99.90;;;;;;5085910;28;20287;-76
2022/08/14 06:26:01;;;;;;;24.73;10.93;;;25.90;99.90;;;;;;5054251;28;20198;-76
2022/08/14 06:28:28;;;;;;;25.63;11.40;;;26.00;99.90;;;;;;5054540;28;20183;-74
2022/08/14 06:30:55;;;;;;;16.60;10.45;;;26.00;99.90;;;;;;5054505;28;20600;-76
2022/08/14 06:33:22;;;;;;;20.80;10.60;;;26.00;99.90;;;;;;5053272;28;20183;-75
2022/08/14 06:35:49;;;;;;;18.88;9.82;;;26.00;99.90;;;;;;5087782;28;20268;-76
2022/08/14 06:38:22;;;;;;;19.08;10.32;;;26.00;99.90;;;;;;5070925;28;20232;-76
2022/08/14 06:40:54;;;;;;;21.38;10.90;;;26.10;99.90;;;;;;5071621;28;20209;-76
2022/08/14 06:43:22;;;;;;;31.95;11.35;;;26.30;99.90;;;;;;5048879;28;20191;-76
2022/08/14 06:45:50;;;;;;;21.48;10.68;;;26.30;99.90;;;;;;5070055;28;20278;-75
2022/08/14 06:48:22;;;;;;;22.50;10.40;;;26.40;99.90;;;;;;5087466;28;20225;-76
2022/08/14 06:50:54;;;;;;;15.75;9.68;;;26.40;99.90;;;;;;5062943;28;20187;-76
2022/08/14 06:53:22;;;;;;;19.95;9.52;;;26.50;99.90;;;;;;5083928;28;20187;-76
2022/08/14 06:55:49;;;;;;;20.20;9.65;;;26.70;99.90;;;;;;5084324;28;20203;-76
2022/08/14 06:58:18;;;;;;;20.95;9.75;;;26.80;99.90;;;;;;5086656;28;20191;-73
2022/08/14 07:06:19;;;;;;;17.40;10.10;;;26.90;99.90;;;;;;5061440;28;20214;-76
2022/08/14 07:08:45;;;;;;;18.27;9.15;;;27.00;99.90;;;;;;5078865;28;20182;-76
2022/08/14 07:11:12;;;;;;;19.45;9.85;;;27.10;99.90;;;;;;5070412;28;20256;-76
2022/08/14 07:13:39;;;;;;;21.55;10.15;;;27.20;99.90;;;;;;5069180;28;20183;-76
2022/08/14 07:16:11;;;;;;;15.02;9.18;;;27.30;99.90;;;;;;5069628;28;20215;-77
2022/08/14 07:18:40;;;;;;;25.20;9.38;;;27.40;99.90;;;;;;5053562;28;20225;-76
2022/08/14 07:21:11;;;;;;;17.50;8.52;;;27.40;99.90;;;;;;5068241;28;20614;-77
2022/08/14 07:23:38;;;;;;;18.42;8.07;;;27.30;99.90;;;;;;5069501;28;20183;-75
2022/08/14 07:26:07;;;;;;;18.05;9.18;;;27.40;99.90;;;;;;5069141;28;20187;-74
2022/08/14 07:28:39;;;;;;;15.02;8.20;;;27.50;99.90;;;;;;5050346;28;20241;-74
2022/08/14 07:31:09;;;;;;;13.20;7.68;;;27.30;99.90;;;;;;5077543;28;20187;-75
2022/08/14 07:33:45;;;;;;;26.63;8.68;;;27.30;99.90;;;;;;5067611;28;20236;-75
2022/08/14 07:36:14;;;;;;;21.30;8.73;;;27.40;99.90;;;;;;5069087;28;20277;-75
2022/08/14 07:38:41;;;;;;;17.05;8.32;;;27.40;99.90;;;;;;5061971;28;20185;-74
2022/08/14 07:41:14;;;;;;;15.88;7.63;;;27.40;99.90;;;;;;5050607;28;20187;-74
2022/08/14 07:43:42;;;;;;;15.65;7.43;;;27.50;99.90;;;;;;5067592;28;20186;-74
2022/08/14 07:46:10;;;;;;;19.55;7.70;;;27.50;99.90;;;;;;5049892;28;20191;-73
2022/08/14 07:48:42;;;;;;;15.68;7.90;;;27.50;99.90;;;;;;5064942;28;20227;-74
2022/08/14 07:51:09;;;;;;;15.98;8.15;;;27.60;99.90;;;;;;5072544;28;20190;-74
2022/08/14 07:53:42;;;;;;;18.27;8.25;;;27.80;99.90;;;;;;5069124;28;20210;-74
2022/08/14 07:56:11;;;;;;;21.77;8.80;;;27.80;99.90;;;;;;5049385;28;20207;-74
2022/08/14 07:58:38;;;;;;;15.13;8.00;;;27.80;99.90;;;;;;5067400;28;20178;-74
2022/08/14 08:01:10;;;;;;;16.90;7.72;;;28.00;99.90;;;;;;5054069;28;20521;-74
2022/08/14 08:03:41;;;;;;;14.07;8.10;;;28.00;99.90;;;;;;5067281;28;20273;-77
2022/08/14 08:06:10;;;;;;;19.17;7.85;;;28.00;99.90;;;;;;5051755;28;20191;-74
2022/08/14 08:08:36;;;;;;;13.07;7.13;;;28.10;99.90;;;;;;5069651;28;20197;-74
2022/08/14 08:11:05;;;;;;;18.20;7.75;;;28.20;99.90;;;;;;5067658;28;20353;-74
2022/08/14 08:13:35;;;;;;;18.85;8.25;;;28.30;99.90;;;;;;5084908;28;20189;-74
2022/08/14 08:16:05;;;;;;;20.85;8.10;;;28.40;99.90;;;;;;5068807;28;20745;-74
2022/08/14 08:18:31;;;;;;;14.88;7.55;;;28.50;99.90;;;;;;5067322;28;20186;-74
2022/08/14 08:20:58;;;;;;;14.23;7.50;;;28.60;99.90;;;;;;5068002;28;20188;-74
2022/08/14 08:23:28;;;;;;;20.90;8.80;;;28.70;99.90;;;;;;5059983;28;20186;-74
2022/08/14 08:25:57;;;;;;;27.13;9.10;;;28.70;99.90;;;;;;5068913;28;20629;-74
2022/08/14 08:28:29;;;;;;;15.98;8.10;;;28.60;99.90;;;;;;5069091;28;20265;-74
2022/08/14 08:31:03;;;;;;;15.88;6.90;;;28.80;99.90;;;;;;5068372;28;20548;-74
2022/08/14 08:33:35;;;;;;;12.60;7.38;;;28.80;99.90;;;;;;5052182;28;20178;-77
2022/08/14 08:36:10;;;;;;;18.80;7.53;;;28.90;99.90;;;;;;5070690;28;20202;-75
2022/08/14 08:38:36;;;;;;;16.20;7.25;;;28.90;99.90;;;;;;5084069;28;20178;-76
2022/08/14 08:41:03;;;;;;;17.05;7.70;;;29.10;99.90;;;;;;5068889;28;20195;-77
2022/08/14 08:43:35;;;;;;;17.05;8.10;;;29.20;99.90;;;;;;5082406;28;20205;-76
2022/08/14 08:46:20;;;;;;;17.95;7.55;;;29.30;99.90;;;;;;5067554;28;20223;-76
2022/08/14 08:48:55;;;;;;;23.27;7.78;;;29.30;99.90;;;;;;5065505;28;20283;-76
2022/08/14 08:51:32;;;;;;;12.63;7.13;;;29.30;99.90;;;;;;5074207;28;20281;-74
2022/08/14 08:54:14;;;;;;;16.08;7.03;;;29.30;99.90;;;;;;5067083;28;20255;-75
2022/08/14 08:56:52;;;;;;;13.80;6.47;;;29.30;99.90;;;;;;5061661;28;20735;-76
2022/08/14 08:59:31;;;;;;;16.75;6.47;;;29.60;99.90;;;;;;5051737;28;20182;-76
2022/08/14 09:02:08;;;;;;;15.18;6.90;;;29.60;99.90;;;;;;5051235;28;20191;-75
2022/08/14 09:04:40;;;;;;;14.13;6.35;;;29.50;99.90;;;;;;5064204;28;20218;-76
2022/08/14 09:07:07;;;;;;;16.35;6.53;;;29.60;99.90;;;;;;5075392;28;20209;-75
2022/08/14 09:09:49;;;;;;;13.32;6.65;;;29.70;99.90;;;;;;5069864;28;20190;-76
2022/08/14 09:12:20;;;;;;;9.65;5.43;;;29.70;99.90;;;;;;5056988;28;20264;-76
2022/08/14 09:14:52;;;;;;;10.95;6.20;;;29.80;99.90;;;;;;5068883;28;20182;-76
2022/08/14 09:17:19;;;;;;;12.15;5.88;;;29.90;99.90;;;;;;5055737;28;20276;-75
2022/08/14 09:19:47;;;;;;;13.07;5.60;;;29.90;99.90;;;;;;5073914;28;20213;-76
2022/08/14 09:22:15;;;;;;;10.73;6.03;;;29.90;99.90;;;;;;5074179;28;20187;-76
2022/08/14 09:24:46;;;;;;;13.07;6.03;;;30.00;99.90;;;;;;5061829;28;20187;-76
2022/08/14 09:27:12;;;;;;;15.07;7.20;;;30.20;99.90;;;;;;5072694;28;20528;-75
2022/08/14 09:29:40;;;;;;;9.35;5.72;;;30.30;99.90;;;;;;5085442;28;20190;-76
2022/08/14 09:32:15;;;;;;;12.73;6.10;;;30.30;99.90;;;;;;5052476;28;20612;-76
2022/08/14 09:35:26;;;;;;;13.18;5.88;;;30.40;99.90;;;;;;5072243;28;20194;-77
2022/08/14 09:38:15;;;;;;;11.82;6.50;;;30.50;99.90;;;;;;5063123;28;20652;-77
2022/08/14 09:41:41;;;;;;;14.52;6.13;;;30.70;99.90;;;;;;5077200;28;20686;-77
2022/08/14 09:45:07;;;;;;;8.57;5.88;;;30.90;99.90;;;;;;5067632;28;20525;-77
2022/08/14 09:47:52;;;;;;;9.82;5.32;;;30.80;99.90;;;;;;5037085;28;20230;-77
2022/08/14 09:50:31;;;;;;;10.30;5.93;;;31.00;99.90;;;;;;5054278;28;20271;-77
2022/08/14 09:53:01;;;;;;;21.85;6.63;;;31.20;99.90;;;;;;5066716;28;20217;-76
2022/08/14 09:55:32;;;;;;;16.80;6.60;;;31.50;99.90;;;;;;5071034;28;20191;-76
2022/08/14 09:58:18;;;;;;;14.40;6.22;;;31.70;99.90;;;;;;5070499;28;20667;-77
2022/08/14 10:00:53;;;;;;;16.35;6.50;;;31.60;99.90;;;;;;5072140;28;20509;-77
2022/08/14 10:03:32;;;;;;;10.88;5.80;;;31.70;99.90;;;;;;5054697;28;20202;-77
2022/08/14 10:06:14;;;;;;;9.55;5.65;;;31.70;99.90;;;;;;5065210;28;20683;-77
2022/08/14 10:08:46;;;;;;;12.27;5.75;;;31.70;99.90;;;;;;5071664;28;20624;-77
2022/08/14 10:11:24;;;;;;;12.88;6.47;;;31.90;99.90;;;;;;5071302;28;20281;-77
2022/08/14 10:14:01;;;;;;;8.48;5.55;;;32.00;99.90;;;;;;5086507;28;20524;-76
2022/08/14 10:16:40;;;;;;;11.80;6.10;;;32.00;99.90;;;;;;5070659;28;20214;-75
2022/08/14 10:19:14;;;;;;;14.18;5.97;;;32.00;99.90;;;;;;5071221;28;20178;-75
2022/08/14 10:22:09;;;;;;;11.27;5.50;;;32.00;99.90;;;;;;5069690;28;20179;-76
2022/08/14 10:24:46;;;;;;;16.20;5.78;;;32.00;99.90;;;;;;5066224;28;20179;-77
2022/08/14 10:27:24;;;;;;;12.27;5.55;;;32.10;99.90;;;;;;5070068;28;20194;-76
2022/08/14 10:29:59;;;;;;;13.02;6.32;;;31.90;99.90;;;;;;5079664;28;20340;-76
2022/08/14 10:32:29;;;;;;;10.55;5.68;;;32.00;99.90;;;;;;5084528;28;20218;-76
2022/08/14 10:35:10;;;;;;;11.13;5.60;;;32.10;99.90;;;;;;5070064;28;20279;-76
2022/08/14 10:37:49;;;;;;;12.93;5.97;;;32.20;99.90;;;;;;5086979;28;20699;-76
2022/08/14 10:40:28;;;;;;;14.13;6.07;;;32.30;99.90;;;;;;5070908;28;20198;-76
2022/08/14 10:42:56;;;;;;;15.35;6.72;;;32.20;99.90;;;;;;5067601;28;20189;-76
2022/08/14 10:45:33;;;;;;;9.95;5.70;;;32.30;99.90;;;;;;5070411;28;20186;-76
2022/08/14 10:48:12;;;;;;;12.50;6.07;;;32.30;99.90;;;;;;5057763;28;20190;-76
2022/08/14 10:50:50;;;;;;;12.55;6.18;;;32.20;99.90;;;;;;5067296;28;20190;-75
2022/08/14 10:53:33;;;;;;;9.77;5.72;;;32.10;99.90;;;;;;5070106;28;20179;-76
2022/08/14 10:56:05;;;;;;;12.40;5.53;;;32.00;99.90;;;;;;5070589;28;20382;-76
2022/08/14 10:58:32;;;;;;;10.52;5.60;;;32.00;99.90;;;;;;5070248;28;20198;-75
2022/08/14 11:01:06;;;;;;;13.00;6.70;;;32.10;99.90;;;;;;5069408;28;20178;-76
2022/08/14 11:03:44;;;;;;;13.35;6.35;;;32.10;99.90;;;;;;5068675;28;21767;-76
2022/08/14 11:06:21;;;;;;;9.70;5.55;;;32.10;99.90;;;;;;5062834;28;20241;-76
2022/08/14 11:08:50;;;;;;;12.95;5.20;;;32.10;99.90;;;;;;5050001;28;20187;-75
2022/08/14 11:11:21;;;;;;;8.35;5.63;;;32.00;99.90;;;;;;5061640;28;20193;-76
2022/08/14 11:13:49;;;;;;;10.07;6.50;;;32.10;99.90;;;;;;5085348;28;20210;-76
2022/08/14 11:16:21;;;;;;;10.23;6.40;;;32.00;99.90;;;;;;5070277;28;20210;-76
2022/08/14 11:18:49;;;;;;;8.70;5.38;;;31.90;99.90;;;;;;5070146;28;20504;-76
2022/08/14 11:21:20;;;;;;;8.98;5.90;;;31.70;99.90;;;;;;5087322;28;20708;-77
2022/08/14 11:23:48;;;;;;;11.68;5.93;;;31.70;99.90;;;;;;5069718;28;20187;-76
2022/08/14 11:26:22;;;;;;;14.27;6.63;;;31.80;99.90;;;;;;5067382;28;20193;-75
2022/08/14 11:28:49;;;;;;;11.88;6.60;;;31.90;99.90;;;;;;5069129;28;20186;-76
2022/08/14 11:31:22;;;;;;;11.48;6.68;;;31.90;99.90;;;;;;5063892;28;20191;-76
2022/08/14 11:33:56;;;;;;;10.18;5.85;;;31.90;99.90;;;;;;5074645;28;20190;-75
2022/08/14 11:36:26;;;;;;;9.07;5.60;;;31.90;99.90;;;;;;5047100;28;20272;-76
2022/08/14 11:38:54;;;;;;;12.52;6.13;;;31.70;99.90;;;;;;5039528;28;20183;-76
2022/08/14 11:41:20;;;;;;;13.82;6.55;;;31.60;99.90;;;;;;5040187;28;20236;-77
2022/08/14 11:43:50;;;;;;;9.82;6.63;;;31.60;99.90;;;;;;5065257;28;20203;-77
2022/08/14 11:46:19;;;;;;;9.95;5.40;;;31.60;99.90;;;;;;5065376;28;20197;-77
2022/08/14 11:48:50;;;;;;;10.30;4.95;;;31.60;99.70;;;;;;5065017;28;20281;-76
2022/08/14 11:51:27;;;;;;;9.93;5.57;;;31.60;99.20;;;;;;5062270;28;20187;-77
2022/08/14 11:54:06;;;;;;;7.60;5.55;;;31.60;99.90;;;;;;5058574;28;20186;-76
2022/08/14 11:56:40;;;;;;;12.38;6.03;;;31.70;99.90;;;;;;5085127;28;20341;-76
2022/08/14 11:59:19;;;;;;;10.35;5.90;;;31.60;99.90;;;;;;5061059;28;20210;-77
2022/08/14 12:01:49;;;;;;;12.32;6.10;;;31.50;99.90;;;;;;5076159;28;20225;-76
2022/08/14 12:04:20;;;;;;;13.02;6.00;;;31.50;99.90;;;;;;5064697;28;20187;-76
2022/08/14 12:06:54;;;;;;;10.68;6.68;;;31.50;99.90;;;;;;5050153;28;20687;-76
2022/08/14 12:09:52;;;;;;;10.18;5.72;;;31.40;99.90;;;;;;5065760;28;20219;-77
2022/08/14 12:12:31;;;;;;;15.88;6.85;;;31.30;99.90;;;;;;5063949;28;20194;-76
2022/08/14 12:15:00;;;;;;;13.05;6.07;;;31.30;99.90;;;;;;5077479;28;20187;-77
2022/08/14 12:17:32;;;;;;;18.08;6.47;;;31.30;99.90;;;;;;5083962;28;20206;-77
2022/08/14 12:20:08;;;;;;;9.77;6.53;;;31.20;99.90;;;;;;5064405;28;20191;-75
2022/08/14 12:22:38;;;;;;;12.20;6.18;;;31.10;99.90;;;;;;5069819;28;20187;-75
2022/08/14 12:25:21;;;;;;;12.27;6.43;;;31.00;99.90;;;;;;5083078;28;20647;-75
2022/08/14 12:27:51;;;;;;;10.77;6.43;;;31.20;99.90;;;;;;5078186;28;20182;-76
2022/08/14 12:30:41;;;;;;;12.23;6.72;;;31.00;99.90;;;;;;5061899;28;20202;-76
2022/08/14 12:33:31;;;;;;;15.10;7.53;;;30.90;99.90;;;;;;5049701;28;20501;-76
2022/08/14 12:36:01;;;;;;;12.32;7.07;;;30.90;99.90;;;;;;5078556;28;20283;-76
2022/08/14 12:38:47;;;;;;;11.63;6.85;;;30.90;99.90;;;;;;5085047;28;20210;-76
2022/08/14 12:41:22;;;;;;;15.80;6.85;;;30.90;99.90;;;;;;5063252;28;20198;-75
2022/08/14 12:44:00;;;;;;;18.13;6.68;;;30.90;99.90;;;;;;5062599;28;20178;-77
2022/08/14 12:46:39;;;;;;;13.48;6.40;;;30.80;99.90;;;;;;5085230;28;20193;-76
2022/08/14 12:49:13;;;;;;;11.57;6.03;;;30.70;99.90;;;;;;5060336;28;20194;-76
2022/08/14 12:51:39;;;;;;;15.73;6.93;;;30.50;99.90;;;;;;5039501;28;20176;-76
2022/08/14 12:54:16;;;;;;;15.20;6.90;;;30.50;99.90;;;;;;5063256;28;21530;-76
2022/08/14 12:56:47;;;;;;;13.93;6.63;;;30.60;99.90;;;;;;5082273;28;20671;-77
2022/08/14 12:59:28;;;;;;;13.95;5.97;;;30.70;99.90;;;;;;5082522;28;20702;-77
2022/08/14 13:01:56;;;;;;;10.25;5.15;;;30.70;99.90;;;;;;5066729;28;20182;-76
2022/08/14 13:04:30;;;;;;;13.43;6.55;;;30.80;99.90;;;;;;5069974;28;20255;-76
2022/08/14 13:07:06;;;;;;;9.90;5.85;;;30.80;99.90;;;;;;5063594;28;20191;-75
2022/08/14 13:09:33;;;;;;;14.73;6.68;;;30.70;99.90;;;;;;5053958;28;20603;-76
2022/08/14 13:12:04;;;;;;;10.05;6.47;;;30.70;99.90;;;;;;5067190;28;20316;-75
2022/08/14 13:14:35;;;;;;;12.18;6.85;;;30.70;99.90;;;;;;5067054;28;20225;-76
2022/08/14 13:17:04;;;;;;;12.07;7.00;;;30.70;99.90;;;;;;5067410;28;20234;-75